sensor_id;sensor_type;location;lat;lon;timestamp;pressure;altitude;pressure_sealevel;temperature;humidity
51715;BME280;39115;59.332;18.034;2023-04-07T00:00:49;102236.41;;;3.22;53.36
51715;BME280;39115;59.332;18.034;2023-04-07T00:03:10;102237.31;;;3.21;53.37
51715;BME280;39115;59.332;18.034;2023-04-07T00:05:32;102229.44;;;3.21;53.31
51715;BME280;39115;59.332;18.034;2023-04-07T00:07:52;102234.63;;;3.23;53.38
51715;BME280;39115;59.332;18.034;2023-04-07T00:10:12;102231.06;;;3.25;53.27
51715;BME280;39115;59.332;18.034;2023-04-07T00:12:33;102223.09;;;3.27;53.25
51715;BME280;39115;59.332;18.034;2023-04-07T00:14:53;102216.88;;;3.29;53.41
51715;BME280;39115;59.332;18.034;2023-04-07T00:17:13;102214.19;;;3.31;53.31
51715;BME280;39115;59.332;18.034;2023-04-07T00:19:34;102215.91;;;3.32;53.18
51715;BME280;39115;59.332;18.034;2023-04-07T00:21:54;102224.78;;;3.29;53.37
51715;BME280;39115;59.332;18.034;2023-04-07T00:24:15;102213.38;;;3.29;53.38
51715;BME280;39115;59.332;18.034;2023-04-07T00:26:36;102215.28;;;3.24;53.47
51715;BME280;39115;59.332;18.034;2023-04-07T00:28:56;102211.00;;;3.21;53.46
51715;BME280;39115;59.332;18.034;2023-04-07T00:31:17;102209.44;;;3.15;53.46
51715;BME280;39115;59.332;18.034;2023-04-07T00:33:37;102220.88;;;3.14;53.60
51715;BME280;39115;59.332;18.034;2023-04-07T00:35:58;102224.47;;;3.12;53.52
51715;BME280;39115;59.332;18.034;2023-04-07T00:38:18;102224.47;;;3.12;53.47
51715;BME280;39115;59.332;18.034;2023-04-07T00:40:38;102213.09;;;3.11;53.91
51715;BME280;39115;59.332;18.034;2023-04-07T00:42:59;102223.47;;;3.16;53.64
51715;BME280;39115;59.332;18.034;2023-04-07T00:45:19;102219.03;;;3.16;53.42
51715;BME280;39115;59.332;18.034;2023-04-07T00:47:39;102223.53;;;3.14;53.44
51715;BME280;39115;59.332;18.034;2023-04-07T00:50:00;102214.75;;;3.14;53.44
51715;BME280;39115;59.332;18.034;2023-04-07T00:52:23;102223.53;;;3.14;53.54
51715;BME280;39115;59.332;18.034;2023-04-07T00:54:47;102221.69;;;3.16;53.44
51715;BME280;39115;59.332;18.034;2023-04-07T00:57:08;102221.75;;;3.15;53.52
51715;BME280;39115;59.332;18.034;2023-04-07T00:59:28;102214.75;;;3.14;53.74
51715;BME280;39115;59.332;18.034;2023-04-07T01:02:04;102216.53;;;3.13;53.48
51715;BME280;39115;59.332;18.034;2023-04-07T01:06:50;102200.84;;;3.10;53.51
51715;BME280;39115;59.332;18.034;2023-04-07T01:09:24;102205.28;;;3.08;53.71
51715;BME280;39115;59.332;18.034;2023-04-07T01:11:52;102203.47;;;3.10;53.60
51715;BME280;39115;59.332;18.034;2023-04-07T01:14:17;102203.47;;;3.10;53.73
51715;BME280;39115;59.332;18.034;2023-04-07T01:16:39;102204.38;;;3.09;53.55
51715;BME280;39115;59.332;18.034;2023-04-07T01:19:03;102208.72;;;3.10;53.70
51715;BME280;39115;59.332;18.034;2023-04-07T01:21:28;102214.06;;;3.07;53.62
51715;BME280;39115;59.332;18.034;2023-04-07T01:24:17;102208.88;;;3.06;53.85
51715;BME280;39115;59.332;18.034;2023-04-07T01:26:41;102207.00;;;3.09;53.92
51715;BME280;39115;59.332;18.034;2023-04-07T01:31:41;102198.19;;;3.10;53.80
51715;BME280;39115;59.332;18.034;2023-04-07T01:34:02;102196.44;;;3.11;53.88
51715;BME280;39115;59.332;18.034;2023-04-07T01:36:23;102196.38;;;3.12;53.55
51715;BME280;39115;59.332;18.034;2023-04-07T01:38:44;102194.56;;;3.14;53.92
51715;BME280;39115;59.332;18.034;2023-04-07T01:41:05;102183.09;;;3.17;53.75
51715;BME280;39115;59.332;18.034;2023-04-07T01:43:27;102190.06;;;3.18;53.75
51715;BME280;39115;59.332;18.034;2023-04-07T01:45:49;102192.63;;;3.20;53.59
51715;BME280;39115;59.332;18.034;2023-04-07T01:48:10;102194.38;;;3.21;53.64
51715;BME280;39115;59.332;18.034;2023-04-07T01:50:31;102192.69;;;3.18;53.58
51715;BME280;39115;59.332;18.034;2023-04-07T01:52:52;102192.78;;;3.15;53.84
51715;BME280;39115;59.332;18.034;2023-04-07T01:55:12;102191.97;;;3.13;53.93
51715;BME280;39115;59.332;18.034;2023-04-07T01:57:33;102194.59;;;3.13;53.90
51715;BME280;39115;59.332;18.034;2023-04-07T01:59:53;102184.06;;;3.13;53.78
51715;BME280;39115;59.332;18.034;2023-04-07T02:02:14;102193.84;;;3.09;53.80
51715;BME280;39115;59.332;18.034;2023-04-07T02:04:35;102193.84;;;3.09;53.82
51715;BME280;39115;59.332;18.034;2023-04-07T02:07:02;102194.75;;;3.08;53.53
51715;BME280;39115;59.332;18.034;2023-04-07T02:09:25;102190.41;;;3.07;53.92
51715;BME280;39115;59.332;18.034;2023-04-07T02:11:47;102200.00;;;3.08;53.89
51715;BME280;39115;59.332;18.034;2023-04-07T02:14:08;102197.38;;;3.08;53.83
51715;BME280;39115;59.332;18.034;2023-04-07T02:16:29;102201.81;;;3.08;53.98
51715;BME280;39115;59.332;18.034;2023-04-07T02:18:50;102202.72;;;3.07;54.09
51715;BME280;39115;59.332;18.034;2023-04-07T02:21:13;102208.88;;;3.06;53.85
51715;BME280;39115;59.332;18.034;2023-04-07T02:23:34;102198.47;;;3.03;54.05
51715;BME280;39115;59.332;18.034;2023-04-07T02:25:56;102206.38;;;3.03;53.97
51715;BME280;39115;59.332;18.034;2023-04-07T02:28:17;102209.16;;;2.96;53.91
51715;BME280;39115;59.332;18.034;2023-04-07T02:30:39;102199.53;;;2.97;54.09
51715;BME280;39115;59.332;18.034;2023-04-07T02:32:59;102211.84;;;2.95;54.27
51715;BME280;39115;59.332;18.034;2023-04-07T02:35:20;102205.00;;;2.91;54.18
51715;BME280;39115;59.332;18.034;2023-04-07T02:37:40;102202.38;;;2.89;54.12
51715;BME280;39115;59.332;18.034;2023-04-07T02:40:01;102202.44;;;2.88;54.29
51715;BME280;39115;59.332;18.034;2023-04-07T02:42:22;102202.53;;;2.84;54.38
51715;BME280;39115;59.332;18.034;2023-04-07T02:44:42;102204.25;;;2.85;54.39
51715;BME280;39115;59.332;18.034;2023-04-07T02:47:02;102209.50;;;2.85;54.18
51715;BME280;39115;59.332;18.034;2023-04-07T02:49:23;102206.88;;;2.85;54.16
51715;BME280;39115;59.332;18.034;2023-04-07T02:51:43;102207.72;;;2.88;54.28
51715;BME280;39115;59.332;18.034;2023-04-07T02:54:05;102199.81;;;2.88;54.13
51715;BME280;39115;59.332;18.034;2023-04-07T02:56:26;102198.97;;;2.87;54.15
51715;BME280;39115;59.332;18.034;2023-04-07T02:58:46;102198.00;;;2.90;54.38
51715;BME280;39115;59.332;18.034;2023-04-07T03:01:06;102205.78;;;2.93;54.40
51715;BME280;39115;59.332;18.034;2023-04-07T03:03:27;102195.16;;;2.96;54.14
51715;BME280;39115;59.332;18.034;2023-04-07T03:05:47;102199.59;;;2.95;54.15
51715;BME280;39115;59.332;18.034;2023-04-07T03:08:07;102200.50;;;2.93;54.21
51715;BME280;39115;59.332;18.034;2023-04-07T03:10:28;102194.41;;;2.92;54.30
51715;BME280;39115;59.332;18.034;2023-04-07T03:12:48;102195.41;;;2.88;54.23
51715;BME280;39115;59.332;18.034;2023-04-07T03:15:09;102199.81;;;2.88;54.29
51715;BME280;39115;59.332;18.034;2023-04-07T03:17:29;102202.38;;;2.89;54.37
51715;BME280;39115;59.332;18.034;2023-04-07T03:19:50;102203.25;;;2.90;54.38
51715;BME280;39115;59.332;18.034;2023-04-07T03:22:10;102198.00;;;2.90;54.48
51715;BME280;39115;59.332;18.034;2023-04-07T03:24:31;102209.38;;;2.90;54.34
51715;BME280;39115;59.332;18.034;2023-04-07T03:26:51;102209.38;;;2.90;54.40
51715;BME280;39115;59.332;18.034;2023-04-07T03:29:11;102206.81;;;2.89;54.35
51715;BME280;39115;59.332;18.034;2023-04-07T03:31:32;102217.31;;;2.89;54.53
51715;BME280;39115;59.332;18.034;2023-04-07T03:33:52;102219.84;;;2.92;54.38
51715;BME280;39115;59.332;18.034;2023-04-07T03:36:12;102219.81;;;2.93;54.52
51715;BME280;39115;59.332;18.034;2023-04-07T03:38:33;102214.50;;;2.95;54.39
51715;BME280;39115;59.332;18.034;2023-04-07T03:40:53;102217.03;;;2.98;54.27
51715;BME280;39115;59.332;18.034;2023-04-07T03:43:13;102217.88;;;2.98;54.44
51715;BME280;39115;59.332;18.034;2023-04-07T03:45:35;102218.03;;;2.94;54.52
51715;BME280;39115;59.332;18.034;2023-04-07T03:47:55;102219.00;;;2.91;54.44
51715;BME280;39115;59.332;18.034;2023-04-07T03:50:15;102208.59;;;2.87;54.40
51715;BME280;39115;59.332;18.034;2023-04-07T03:52:36;102216.56;;;2.85;54.57
51715;BME280;39115;59.332;18.034;2023-04-07T03:54:56;102217.53;;;2.82;54.52
51715;BME280;39115;59.332;18.034;2023-04-07T03:57:16;102215.78;;;2.81;54.58
51715;BME280;39115;59.332;18.034;2023-04-07T03:59:37;102214.84;;;2.84;54.65
51715;BME280;39115;59.332;18.034;2023-04-07T04:01:57;102219.13;;;2.87;54.52
51715;BME280;39115;59.332;18.034;2023-04-07T04:04:18;102209.44;;;2.89;54.45
51715;BME280;39115;59.332;18.034;2023-04-07T04:06:38;102217.38;;;2.87;54.55
51715;BME280;39115;59.332;18.034;2023-04-07T04:08:58;102218.31;;;2.84;54.61
51715;BME280;39115;59.332;18.034;2023-04-07T04:11:18;102221.13;;;2.80;54.78
51715;BME280;39115;59.332;18.034;2023-04-07T04:13:39;102224.59;;;2.80;54.58
51715;BME280;39115;59.332;18.034;2023-04-07T04:15:59;102223.63;;;2.83;54.79
51715;BME280;39115;59.332;18.034;2023-04-07T04:18:19;102224.44;;;2.85;54.58
51715;BME280;39115;59.332;18.034;2023-04-07T04:20:40;102225.34;;;2.84;54.58
51715;BME280;39115;59.332;18.034;2023-04-07T04:23:00;102237.53;;;2.87;54.60
51715;BME280;39115;59.332;18.034;2023-04-07T04:25:21;102226.25;;;2.83;54.67
51715;BME280;39115;59.332;18.034;2023-04-07T04:27:41;102232.34;;;2.85;54.68
51715;BME280;39115;59.332;18.034;2023-04-07T04:30:02;102239.28;;;2.88;54.63
51715;BME280;39115;59.332;18.034;2023-04-07T04:32:22;102240.13;;;2.88;54.59
51715;BME280;39115;59.332;18.034;2023-04-07T04:34:43;102248.81;;;2.90;54.83
51715;BME280;39115;59.332;18.034;2023-04-07T04:37:03;102247.09;;;2.89;54.63
51715;BME280;39115;59.332;18.034;2023-04-07T04:39:23;102247.06;;;2.91;54.66
51715;BME280;39115;59.332;18.034;2023-04-07T04:41:44;102250.56;;;2.91;54.62
51715;BME280;39115;59.332;18.034;2023-04-07T04:44:04;102260.22;;;2.91;55.03
51715;BME280;39115;59.332;18.034;2023-04-07T04:46:25;102253.25;;;2.90;54.81
51715;BME280;39115;59.332;18.034;2023-04-07T04:48:46;102265.53;;;2.89;54.74
51715;BME280;39115;59.332;18.034;2023-04-07T04:51:06;102258.44;;;2.91;54.69
51715;BME280;39115;59.332;18.034;2023-04-07T04:53:26;102257.47;;;2.94;54.77
51715;BME280;39115;59.332;18.034;2023-04-07T04:55:47;102253.09;;;2.94;54.72
51715;BME280;39115;59.332;18.034;2023-04-07T04:58:11;102266.25;;;2.94;54.77
51715;BME280;39115;59.332;18.034;2023-04-07T05:00:31;102268.00;;;2.94;54.69
51715;BME280;39115;59.332;18.034;2023-04-07T05:02:51;102267.09;;;2.95;54.67
51715;BME280;39115;59.332;18.034;2023-04-07T05:05:11;102268.81;;;2.96;54.86
51715;BME280;39115;59.332;18.034;2023-04-07T05:07:32;102276.63;;;2.99;54.64
51715;BME280;39115;59.332;18.034;2023-04-07T05:09:52;102272.16;;;3.01;54.64
51715;BME280;39115;59.332;18.034;2023-04-07T05:12:13;102273.88;;;3.02;54.75
51715;BME280;39115;59.332;18.034;2023-04-07T05:14:33;102276.44;;;3.05;54.64
51715;BME280;39115;59.332;18.034;2023-04-07T05:16:53;102277.22;;;3.07;54.85
51715;BME280;39115;59.332;18.034;2023-04-07T05:19:13;102276.31;;;3.08;54.64
51715;BME280;39115;59.332;18.034;2023-04-07T05:21:34;102278.03;;;3.09;54.58
51715;BME280;39115;59.332;18.034;2023-04-07T05:23:54;102274.59;;;3.07;54.77
51715;BME280;39115;59.332;18.034;2023-04-07T05:26:15;102284.28;;;3.07;54.91
51715;BME280;39115;59.332;18.034;2023-04-07T05:28:35;102284.22;;;3.08;54.90
51715;BME280;39115;59.332;18.034;2023-04-07T05:30:56;102287.59;;;3.13;54.90
51715;BME280;39115;59.332;18.034;2023-04-07T05:33:16;102284.00;;;3.16;54.86
51715;BME280;39115;59.332;18.034;2023-04-07T05:35:36;102290.97;;;3.17;54.71
51715;BME280;39115;59.332;18.034;2023-04-07T05:37:57;102292.66;;;3.20;54.67
51715;BME280;39115;59.332;18.034;2023-04-07T05:40:17;102292.59;;;3.21;54.98
51715;BME280;39115;59.332;18.034;2023-04-07T05:42:38;102300.41;;;3.23;54.80
51715;BME280;39115;59.332;18.034;2023-04-07T05:44:58;102301.38;;;3.22;54.85
51715;BME280;39115;59.332;18.034;2023-04-07T05:47:18;102301.44;;;3.19;54.80
51715;BME280;39115;59.332;18.034;2023-04-07T05:49:39;102296.19;;;3.19;55.01
51715;BME280;39115;59.332;18.034;2023-04-07T05:52:04;102302.28;;;3.19;54.86
51715;BME280;39115;59.332;18.034;2023-04-07T05:54:25;102300.59;;;3.18;54.83
51715;BME280;39115;59.332;18.034;2023-04-07T05:56:46;102305.03;;;3.16;54.93
51715;BME280;39115;59.332;18.034;2023-04-07T05:59:07;102305.03;;;3.16;54.91
51715;BME280;39115;59.332;18.034;2023-04-07T06:01:28;102307.63;;;3.17;54.86
51715;BME280;39115;59.332;18.034;2023-04-07T06:03:48;102311.06;;;3.20;54.89
51715;BME280;39115;59.332;18.034;2023-04-07T06:06:08;102315.31;;;3.24;54.90
51715;BME280;39115;59.332;18.034;2023-04-07T06:08:29;102313.50;;;3.26;54.92
51715;BME280;39115;59.332;18.034;2023-04-07T06:10:49;102321.41;;;3.26;54.87
51715;BME280;39115;59.332;18.034;2023-04-07T06:13:10;102311.75;;;3.26;54.87
51715;BME280;39115;59.332;18.034;2023-04-07T06:15:30;102314.25;;;3.29;54.95
51715;BME280;39115;59.332;18.034;2023-04-07T06:17:50;102313.34;;;3.30;55.10
51715;BME280;39115;59.332;18.034;2023-04-07T06:20:11;102314.19;;;3.31;55.11
51715;BME280;39115;59.332;18.034;2023-04-07T06:22:31;102314.19;;;3.31;54.96
51715;BME280;39115;59.332;18.034;2023-04-07T06:24:51;102312.50;;;3.30;55.19
51715;BME280;39115;59.332;18.034;2023-04-07T06:27:12;102314.19;;;3.31;55.06
51715;BME280;39115;59.332;18.034;2023-04-07T06:29:32;102315.94;;;3.32;54.95
51715;BME280;39115;59.332;18.034;2023-04-07T06:31:52;102318.56;;;3.32;55.00
51715;BME280;39115;59.332;18.034;2023-04-07T06:34:13;102317.78;;;3.30;54.97
51715;BME280;39115;59.332;18.034;2023-04-07T06:36:33;102318.53;;;3.34;55.18
51715;BME280;39115;59.332;18.034;2023-04-07T06:38:54;102318.47;;;3.35;55.10
51715;BME280;39115;59.332;18.034;2023-04-07T06:41:14;102319.28;;;3.37;55.11
51715;BME280;39115;59.332;18.034;2023-04-07T06:43:36;102322.84;;;3.36;54.88
51715;BME280;39115;59.332;18.034;2023-04-07T06:45:56;102319.38;;;3.34;54.93
51715;BME280;39115;59.332;18.034;2023-04-07T06:48:16;102323.69;;;3.37;55.27
51715;BME280;39115;59.332;18.034;2023-04-07T06:50:37;102327.97;;;3.39;55.16
51715;BME280;39115;59.332;18.034;2023-04-07T06:52:57;102334.94;;;3.42;55.12
51715;BME280;39115;59.332;18.034;2023-04-07T06:55:18;102324.34;;;3.43;54.93
51715;BME280;39115;59.332;18.034;2023-04-07T06:57:38;102326.94;;;3.45;54.95
51715;BME280;39115;59.332;18.034;2023-04-07T06:59:58;102327.81;;;3.45;55.04
51715;BME280;39115;59.332;18.034;2023-04-07T07:02:19;102335.59;;;3.48;55.32
51715;BME280;39115;59.332;18.034;2023-04-07T07:04:39;102325.81;;;3.52;54.94
51715;BME280;39115;59.332;18.034;2023-04-07T07:07:00;102331.97;;;3.53;55.09
51715;BME280;39115;59.332;18.034;2023-04-07T07:09:20;102330.22;;;3.52;55.04
51715;BME280;39115;59.332;18.034;2023-04-07T07:11:41;102326.69;;;3.53;55.26
51715;BME280;39115;59.332;18.034;2023-04-07T07:14:01;102332.81;;;3.53;55.02
51715;BME280;39115;59.332;18.034;2023-04-07T07:16:21;102340.03;;;3.46;55.35
51715;BME280;39115;59.332;18.034;2023-04-07T07:18:45;102339.19;;;3.46;55.22
51715;BME280;39115;59.332;18.034;2023-04-07T07:21:05;102338.38;;;3.44;55.33
51715;BME280;39115;59.332;18.034;2023-04-07T07:23:25;102340.16;;;3.43;55.27
51715;BME280;39115;59.332;18.034;2023-04-07T07:25:46;102342.78;;;3.43;55.18
51715;BME280;39115;59.332;18.034;2023-04-07T07:28:06;102334.88;;;3.43;55.18
51715;BME280;39115;59.332;18.034;2023-04-07T07:30:28;102341.75;;;3.47;55.22
51715;BME280;39115;59.332;18.034;2023-04-07T07:32:49;102343.28;;;3.55;55.38
51715;BME280;39115;59.332;18.034;2023-04-07T07:35:09;102347.44;;;3.62;55.13
51715;BME280;39115;59.332;18.034;2023-04-07T07:37:30;102346.38;;;3.68;55.18
51715;BME280;39115;59.332;18.034;2023-04-07T07:39:50;102337.41;;;3.73;55.16
51715;BME280;39115;59.332;18.034;2023-04-07T07:42:11;102348.84;;;3.72;55.06
51715;BME280;39115;59.332;18.034;2023-04-07T07:44:31;102357.72;;;3.70;55.37
51715;BME280;39115;59.332;18.034;2023-04-07T07:46:52;102356.88;;;3.69;55.34
51715;BME280;39115;59.332;18.034;2023-04-07T07:49:12;102358.63;;;3.69;55.46
51715;BME280;39115;59.332;18.034;2023-04-07T07:51:32;102360.44;;;3.68;55.52
51715;BME280;39115;59.332;18.034;2023-04-07T07:53:53;102366.53;;;3.69;55.35
51715;BME280;39115;59.332;18.034;2023-04-07T07:56:13;102367.41;;;3.69;55.26
51715;BME280;39115;59.332;18.034;2023-04-07T07:58:33;102361.22;;;3.70;55.41
51715;BME280;39115;59.332;18.034;2023-04-07T08:00:54;102369.84;;;3.75;55.11
51715;BME280;39115;59.332;18.034;2023-04-07T08:03:15;102372.34;;;3.78;55.44
51715;BME280;39115;59.332;18.034;2023-04-07T08:05:36;102368.72;;;3.83;55.03
51715;BME280;39115;59.332;18.034;2023-04-07T08:07:56;102383.47;;;3.88;54.97
51715;BME280;39115;59.332;18.034;2023-04-07T08:10:16;102378.03;;;3.93;55.19
51715;BME280;39115;59.332;18.034;2023-04-07T08:12:39;102387.63;;;3.95;55.26
51715;BME280;39115;59.332;18.034;2023-04-07T08:14:59;102377.84;;;3.99;55.40
51715;BME280;39115;59.332;18.034;2023-04-07T08:17:20;102379.44;;;4.03;55.18
51715;BME280;39115;59.332;18.034;2023-04-07T08:19:40;102385.53;;;4.05;55.08
51715;BME280;39115;59.332;18.034;2023-04-07T08:22:00;102379.34;;;4.06;54.93
51715;BME280;39115;59.332;18.034;2023-04-07T08:24:21;102382.75;;;4.10;54.97
51715;BME280;39115;59.332;18.034;2023-04-07T08:26:41;102388.72;;;4.15;55.12
51715;BME280;39115;59.332;18.034;2023-04-07T08:29:01;102393.91;;;4.17;55.04
51715;BME280;39115;59.332;18.034;2023-04-07T08:31:22;102388.63;;;4.18;55.06
51715;BME280;39115;59.332;18.034;2023-04-07T08:33:42;102392.16;;;4.17;54.84
51715;BME280;39115;59.332;18.034;2023-04-07T08:36:02;102394.03;;;4.14;55.07
51715;BME280;39115;59.332;18.034;2023-04-07T08:38:23;102396.53;;;4.18;55.15
51715;BME280;39115;59.332;18.034;2023-04-07T08:40:43;102398.25;;;4.19;55.09
51715;BME280;39115;59.332;18.034;2023-04-07T08:43:08;102387.56;;;4.22;54.94
51715;BME280;39115;59.332;18.034;2023-04-07T08:45:28;102391.94;;;4.23;54.83
51715;BME280;39115;59.332;18.034;2023-04-07T08:47:49;102396.38;;;4.23;55.36
51715;BME280;39115;59.332;18.034;2023-04-07T08:50:12;102386.59;;;4.25;55.01
51715;BME280;39115;59.332;18.034;2023-04-07T08:52:39;102390.88;;;4.29;54.99
51715;BME280;39115;59.332;18.034;2023-04-07T08:55:01;102382.84;;;4.32;55.26
51715;BME280;39115;59.332;18.034;2023-04-07T08:57:23;102389.75;;;4.36;54.91
51715;BME280;39115;59.332;18.034;2023-04-07T08:59:43;102387.91;;;4.38;55.01
51715;BME280;39115;59.332;18.034;2023-04-07T09:02:07;102390.50;;;4.40;55.16
51715;BME280;39115;59.332;18.034;2023-04-07T09:04:28;102390.50;;;4.40;55.23
51715;BME280;39115;59.332;18.034;2023-04-07T09:06:48;102387.84;;;4.40;54.90
51715;BME280;39115;59.332;18.034;2023-04-07T09:09:08;102395.69;;;4.41;55.25
51715;BME280;39115;59.332;18.034;2023-04-07T09:11:29;102398.25;;;4.45;55.14
51715;BME280;39115;59.332;18.034;2023-04-07T09:13:50;102392.06;;;4.46;54.89
51715;BME280;39115;59.332;18.034;2023-04-07T09:16:10;102391.09;;;4.48;55.37
51715;BME280;39115;59.332;18.034;2023-04-07T09:18:33;102398.94;;;4.50;54.78
51715;BME280;39115;59.332;18.034;2023-04-07T09:21:00;102394.34;;;4.55;55.12
51715;BME280;39115;59.332;18.034;2023-04-07T09:23:31;102399.50;;;4.58;54.90
51715;BME280;39115;59.332;18.034;2023-04-07T09:25:52;102398.59;;;4.59;55.19
51715;BME280;39115;59.332;18.034;2023-04-07T09:28:12;102401.16;;;4.62;55.14
51715;BME280;39115;59.332;18.034;2023-04-07T09:30:32;102404.63;;;4.63;55.44
51715;BME280;39115;59.332;18.034;2023-04-07T09:32:53;102407.28;;;4.63;55.14
51715;BME280;39115;59.332;18.034;2023-04-07T09:35:13;102402.00;;;4.63;55.18
51715;BME280;39115;59.332;18.034;2023-04-07T09:37:34;102407.16;;;4.66;55.33
51715;BME280;39115;59.332;18.034;2023-04-07T09:39:55;102410.72;;;4.65;55.36
51715;BME280;39115;59.332;18.034;2023-04-07T09:42:15;102409.00;;;4.64;55.00
51715;BME280;39115;59.332;18.034;2023-04-07T09:44:38;102412.59;;;4.61;55.22
51715;BME280;39115;59.332;18.034;2023-04-07T09:47:00;102417.06;;;4.59;55.17
51715;BME280;39115;59.332;18.034;2023-04-07T09:49:20;102410.81;;;4.62;55.32
51715;BME280;39115;59.332;18.034;2023-04-07T09:51:57;102419.47;;;4.65;55.26
51715;BME280;39115;59.332;18.034;2023-04-07T09:56:56;102419.09;;;4.76;55.55
51715;BME280;39115;59.332;18.034;2023-04-07T09:59:17;102424.19;;;4.81;55.12
51715;BME280;39115;59.332;18.034;2023-04-07T10:01:38;102422.44;;;4.81;55.03
51715;BME280;39115;59.332;18.034;2023-04-07T10:03:59;102422.44;;;4.81;55.55
51715;BME280;39115;59.332;18.034;2023-04-07T10:06:20;102425.84;;;4.83;55.10
51715;BME280;39115;59.332;18.034;2023-04-07T10:08:41;102422.31;;;4.84;55.37
51715;BME280;39115;59.332;18.034;2023-04-07T10:11:02;102423.88;;;4.90;55.36
51715;BME280;39115;59.332;18.034;2023-04-07T10:13:23;102428.22;;;4.91;54.99
51715;BME280;39115;59.332;18.034;2023-04-07T10:15:44;102433.28;;;4.97;55.26
51715;BME280;39115;59.332;18.034;2023-04-07T10:18:04;102425.25;;;5.00;54.89
51715;BME280;39115;59.332;18.034;2023-04-07T10:20:26;102430.31;;;5.06;55.02
51715;BME280;39115;59.332;18.034;2023-04-07T10:22:48;102428.50;;;5.07;54.66
51715;BME280;39115;59.332;18.034;2023-04-07T10:25:11;102426.84;;;5.04;54.73
51715;BME280;39115;59.332;18.034;2023-04-07T10:27:34;102427.72;;;5.05;54.85
51715;BME280;39115;59.332;18.034;2023-04-07T10:29:56;102430.22;;;5.08;55.07
51715;BME280;39115;59.332;18.034;2023-04-07T10:32:17;102427.50;;;5.11;54.79
51715;BME280;39115;59.332;18.034;2023-04-07T10:37:11;102431.88;;;5.11;54.86
51715;BME280;39115;59.332;18.034;2023-04-07T10:39:32;102428.41;;;5.10;54.81
51715;BME280;39115;59.332;18.034;2023-04-07T10:41:54;102428.22;;;5.15;55.05
51715;BME280;39115;59.332;18.034;2023-04-07T10:47:02;102430.63;;;5.21;55.43
51715;BME280;39115;59.332;18.034;2023-04-07T10:49:24;102432.28;;;5.23;54.73
51715;BME280;39115;59.332;18.034;2023-04-07T10:51:46;102435.75;;;5.26;54.75
51715;BME280;39115;59.332;18.034;2023-04-07T10:54:25;102439.41;;;5.21;54.89
51715;BME280;39115;59.332;18.034;2023-04-07T10:57:03;102440.28;;;5.22;54.94
51715;BME280;39115;59.332;18.034;2023-04-07T10:59:23;102438.44;;;5.24;54.97
51715;BME280;39115;59.332;18.034;2023-04-07T11:01:46;102441.88;;;5.26;55.21
51715;BME280;39115;59.332;18.034;2023-04-07T11:04:06;102434.75;;;5.28;55.40
51715;BME280;39115;59.332;18.034;2023-04-07T11:06:27;102433.84;;;5.29;54.71
51715;BME280;39115;59.332;18.034;2023-04-07T11:08:48;102439.97;;;5.30;54.83
51715;BME280;39115;59.332;18.034;2023-04-07T11:11:10;102445.31;;;5.28;55.08
51715;BME280;39115;59.332;18.034;2023-04-07T11:13:38;102453.91;;;5.33;55.03
51715;BME280;39115;59.332;18.034;2023-04-07T11:15:59;102445.88;;;5.36;54.74
51715;BME280;39115;59.332;18.034;2023-04-07T11:18:20;102451.25;;;5.35;55.17
51715;BME280;39115;59.332;18.034;2023-04-07T11:20:41;102452.00;;;5.37;54.71
51715;BME280;39115;59.332;18.034;2023-04-07T11:23:02;102450.25;;;5.37;54.77
51715;BME280;39115;59.332;18.034;2023-04-07T11:25:23;102446.00;;;5.33;54.78
51715;BME280;39115;59.332;18.034;2023-04-07T11:27:46;102449.63;;;5.31;54.88
51715;BME280;39115;59.332;18.034;2023-04-07T11:30:07;102441.59;;;5.34;55.36
51715;BME280;39115;59.332;18.034;2023-04-07T11:32:29;102443.06;;;5.41;54.82
51715;BME280;39115;59.332;18.034;2023-04-07T11:34:49;102441.16;;;5.45;54.83
51715;BME280;39115;59.332;18.034;2023-04-07T11:37:20;102445.63;;;5.43;54.70
51715;BME280;39115;59.332;18.034;2023-04-07T11:39:40;102454.63;;;5.38;54.90
51715;BME280;39115;59.332;18.034;2023-04-07T11:42:01;102442.25;;;5.39;55.35
51715;BME280;39115;59.332;18.034;2023-04-07T11:44:21;102444.00;;;5.40;55.35
51715;BME280;39115;59.332;18.034;2023-04-07T11:46:55;102441.16;;;5.45;55.16
51715;BME280;39115;59.332;18.034;2023-04-07T11:49:15;102435.56;;;5.52;54.99
51715;BME280;39115;59.332;18.034;2023-04-07T11:51:36;102445.19;;;5.55;55.24
51715;BME280;39115;59.332;18.034;2023-04-07T11:53:56;102448.59;;;5.57;55.41
51715;BME280;39115;59.332;18.034;2023-04-07T11:56:17;102447.00;;;5.53;54.79
51715;BME280;39115;59.332;18.034;2023-04-07T11:58:37;102453.22;;;5.52;54.84
51715;BME280;39115;59.332;18.034;2023-04-07T12:00:59;102448.00;;;5.50;54.81
51715;BME280;39115;59.332;18.034;2023-04-07T12:03:23;102453.38;;;5.47;54.89
51715;BME280;39115;59.332;18.034;2023-04-07T12:05:44;102456.94;;;5.46;55.29
51715;BME280;39115;59.332;18.034;2023-04-07T12:08:04;102448.25;;;5.44;55.24
51715;BME280;39115;59.332;18.034;2023-04-07T12:10:25;102455.03;;;5.50;55.34
51715;BME280;39115;59.332;18.034;2023-04-07T12:12:46;102455.59;;;5.58;55.48
51715;BME280;39115;59.332;18.034;2023-04-07T12:15:06;102460.53;;;5.67;55.48
51715;BME280;39115;59.332;18.034;2023-04-07T12:17:26;102458.69;;;5.69;55.40
51715;BME280;39115;59.332;18.034;2023-04-07T12:19:47;102460.34;;;5.72;54.68
51715;BME280;39115;59.332;18.034;2023-04-07T12:22:07;102449.59;;;5.77;55.00
51715;BME280;39115;59.332;18.034;2023-04-07T12:24:28;102445.78;;;5.84;55.16
51715;BME280;39115;59.332;18.034;2023-04-07T12:26:48;102452.66;;;5.88;55.22
51715;BME280;39115;59.332;18.034;2023-04-07T12:29:08;102451.56;;;5.94;54.68
51715;BME280;39115;59.332;18.034;2023-04-07T12:31:29;102448.78;;;5.97;54.61